Time;durP1;ratioP1;P1;durP2;ratioP2;P2;SDS_P1;SDS_P2;PMS_P1;PMS_P2;Temp;Humidity;BMP_temperature;BMP_pressure;BME280_temperature;BME280_humidity;BME280_pressure;Samples;Min_cycle;Max_cycle;Signal;HPM_P1;HPM_P2
2022/10/12 00:01:37;;;;;;;16.53;11.17;;;;;;;12.30;100.00;98835.53;5100911;28;20265;-73
2022/10/12 00:04:03;;;;;;;18.10;12.30;;;;;;;12.33;100.00;98822.06;5101069;28;20311;-73
2022/10/12 00:06:30;;;;;;;17.13;12.17;;;;;;;12.35;100.00;98825.50;5100963;28;20282;-73
2022/10/12 00:08:58;;;;;;;13.73;10.53;;;;;;;12.39;100.00;98822.53;5104063;28;20287;-74
2022/10/12 00:11:29;;;;;;;13.67;10.83;;;;;;;12.47;100.00;98830.81;5101046;28;20575;-73
2022/10/12 00:13:57;;;;;;;15.07;10.10;;;;;;;12.53;100.00;98834.91;5100997;28;20265;-73
2022/10/12 00:16:25;;;;;;;16.17;11.03;;;;;;;12.57;100.00;98833.72;5100822;28;20272;-74
2022/10/12 00:18:52;;;;;;;12.53;10.20;;;;;;;12.61;100.00;98827.28;5110802;28;20218;-73
2022/10/12 00:21:19;;;;;;;14.07;10.60;;;;;;;12.65;100.00;98826.13;5112234;28;20307;-74
2022/10/12 00:23:46;;;;;;;16.07;11.27;;;;;;;12.66;100.00;98825.16;5114197;28;20221;-73
2022/10/12 00:26:16;;;;;;;21.93;12.03;;;;;;;12.70;100.00;98826.66;5113871;28;20591;-73
2022/10/12 00:28:43;;;;;;;16.50;11.60;;;;;;;12.77;100.00;98836.75;5110842;28;20581;-73
2022/10/12 00:31:13;;;;;;;17.07;11.43;;;;;;;12.75;100.00;98829.84;5113918;28;20260;-73
2022/10/12 00:33:40;;;;;;;17.17;11.63;;;;;;;12.74;100.00;98818.41;5113825;28;20257;-73
2022/10/12 00:36:15;;;;;;;18.60;11.57;;;;;;;12.72;100.00;98819.47;5113616;28;20608;-73
2022/10/12 00:38:42;;;;;;;15.37;11.53;;;;;;;12.77;100.00;98826.16;5111853;28;20256;-72
2022/10/12 00:41:09;;;;;;;18.30;11.80;;;;;;;12.76;100.00;98820.94;5113835;28;20260;-73
2022/10/12 00:43:40;;;;;;;15.23;11.20;;;;;;;12.73;100.00;98813.19;5113798;28;20261;-72
2022/10/12 00:46:14;;;;;;;12.50;9.50;;;;;;;12.68;100.00;98810.00;5112162;28;20245;-72
2022/10/12 00:48:41;;;;;;;14.57;9.77;;;;;;;12.65;100.00;98812.88;5111213;28;20270;-72
2022/10/12 00:51:09;;;;;;;15.07;11.20;;;;;;;12.59;100.00;98813.28;5113668;28;20274;-74
2022/10/12 00:53:42;;;;;;;14.30;11.07;;;;;;;12.49;100.00;98822.78;5113901;28;20267;-73
2022/10/12 00:56:16;;;;;;;15.33;11.40;;;;;;;12.40;100.00;98815.44;5105863;28;20253;-72
2022/10/12 00:58:45;;;;;;;18.87;12.00;;;;;;;12.32;100.00;98815.06;5100275;28;20228;-73
2022/10/12 01:01:12;;;;;;;15.37;11.53;;;;;;;12.22;100.00;98806.03;5100231;28;20258;-73
2022/10/12 01:03:39;;;;;;;17.73;11.50;;;;;;;12.04;100.00;98820.47;5100622;28;20593;-74
2022/10/12 01:06:07;;;;;;;13.63;11.27;;;;;;;11.86;100.00;98813.72;5106208;28;20287;-74
2022/10/12 01:08:36;;;;;;;13.50;10.20;;;;;;;11.71;100.00;98804.06;5109568;28;20279;-74
2022/10/12 01:11:03;;;;;;;15.67;11.00;;;;;;;11.65;100.00;98815.03;5104353;28;20268;-74
2022/10/12 01:13:30;;;;;;;16.83;11.30;;;;;;;11.62;100.00;98807.31;5102876;28;20279;-74
2022/10/12 01:16:05;;;;;;;16.50;12.07;;;;;;;11.62;100.00;98807.31;5107049;28;20264;-72
2022/10/12 01:18:40;;;;;;;15.23;11.33;;;;;;;11.56;100.00;98813.78;5104419;28;20230;-72
2022/10/12 01:21:13;;;;;;;16.47;11.70;;;;;;;11.51;100.00;98804.44;5104289;28;20294;-74
2022/10/12 01:23:56;;;;;;;17.90;11.27;;;;;;;11.47;100.00;98797.63;5107434;28;20263;-73
2022/10/12 01:26:42;;;;;;;16.20;11.67;;;;;;;11.44;100.00;98803.97;5104128;28;20281;-73
2022/10/12 01:29:25;;;;;;;16.40;12.47;;;;;;;11.40;100.00;98806.91;5104125;28;20262;-73
2022/10/12 01:31:59;;;;;;;17.60;12.73;;;;;;;11.37;100.00;98802.63;5116133;28;20643;-73
2022/10/12 01:34:36;;;;;;;18.30;11.73;;;;;;;11.31;100.00;98799.53;5117322;28;20656;-73
2022/10/12 01:37:11;;;;;;;15.97;12.40;;;;;;;11.25;100.00;98800.75;5117481;28;20350;-73
2022/10/12 01:39:43;;;;;;;16.67;12.27;;;;;;;11.21;100.00;98808.97;5113291;28;20584;-72
2022/10/12 01:42:15;;;;;;;17.53;12.40;;;;;;;11.13;100.00;98805.97;5117242;28;20235;-73
2022/10/12 01:44:45;;;;;;;15.73;11.50;;;;;;;11.07;100.00;98811.63;5117167;28;20222;-73
2022/10/12 01:47:14;;;;;;;15.60;11.57;;;;;;;11.02;100.00;98805.75;5114411;28;20687;-73
2022/10/12 01:49:41;;;;;;;16.80;12.10;;;;;;;10.94;100.00;98805.38;5116612;28;20267;-73
2022/10/12 01:52:27;;;;;;;16.43;12.20;;;;;;;10.89;100.00;98800.31;5116941;28;20255;-73
2022/10/12 01:55:05;;;;;;;15.97;11.50;;;;;;;10.92;100.00;98804.59;5115965;28;20254;-73
2022/10/12 01:57:43;;;;;;;16.37;11.80;;;;;;;10.91;100.00;98797.59;5103804;28;20279;-73
2022/10/12 02:00:12;;;;;;;18.17;12.50;;;;;;;10.90;100.00;98791.44;5116753;28;20268;-73
2022/10/12 02:02:49;;;;;;;17.17;12.53;;;;;;;10.91;100.00;98793.19;5116657;28;20224;-73
2022/10/12 02:05:24;;;;;;;20.27;12.83;;;;;;;10.93;100.00;98785.13;5113274;28;20612;-73
2022/10/12 02:07:55;;;;;;;14.97;12.07;;;;;;;10.90;100.00;98785.31;5116756;28;20287;-72
2022/10/12 02:10:27;;;;;;;15.73;11.87;;;;;;;10.86;100.00;98795.25;5116606;28;20257;-72
2022/10/12 02:12:56;;;;;;;19.73;12.77;;;;;;;10.85;100.00;98792.69;5113005;28;20596;-72
2022/10/12 02:15:26;;;;;;;16.63;12.87;;;;;;;10.80;100.00;98785.03;5115987;28;20264;-72
2022/10/12 02:17:54;;;;;;;16.27;12.10;;;;;;;10.76;100.00;98787.94;5116491;28;20306;-72
2022/10/12 02:20:23;;;;;;;22.70;13.90;;;;;;;10.74;100.00;98789.81;5116147;28;20279;-73
2022/10/12 02:22:52;;;;;;;16.13;11.87;;;;;;;10.67;100.00;98785.84;5115947;28;20597;-72
2022/10/12 02:25:21;;;;;;;20.47;12.23;;;;;;;10.68;100.00;98790.19;5102937;28;20261;-72
2022/10/12 02:27:55;;;;;;;19.13;13.70;;;;;;;10.69;100.00;98791.88;5102905;28;20676;-73
2022/10/12 02:30:22;;;;;;;20.63;13.77;;;;;;;10.74;100.00;98789.81;5104780;28;20267;-74
2022/10/12 02:32:54;;;;;;;21.77;14.73;;;;;;;10.83;100.00;98784.00;5102532;28;20271;-73
2022/10/12 02:35:27;;;;;;;22.83;15.73;;;;;;;10.99;100.00;98788.25;5102853;28;20262;-73
2022/10/12 02:37:56;;;;;;;20.73;14.40;;;;;;;11.10;100.00;98779.66;5102832;28;20267;-73
2022/10/12 02:40:33;;;;;;;21.70;15.23;;;;;;;11.19;100.00;98784.41;5106047;28;20355;-74
2022/10/12 02:43:05;;;;;;;23.40;15.47;;;;;;;11.25;100.00;98786.69;5102716;28;20269;-73
2022/10/12 02:45:34;;;;;;;22.07;14.93;;;;;;;11.30;100.00;98779.28;5102590;28;20238;-73
2022/10/12 02:48:01;;;;;;;22.70;15.10;;;;;;;11.36;100.00;98774.47;5103602;28;20278;-73
2022/10/12 02:50:30;;;;;;;19.70;14.60;;;;;;;11.41;100.00;98771.53;5104093;28;20262;-73
2022/10/12 02:52:58;;;;;;;20.23;14.70;;;;;;;11.47;100.00;98765.88;5102463;28;20268;-73
2022/10/12 02:55:25;;;;;;;19.13;14.60;;;;;;;11.49;100.00;98766.63;5107322;28;20258;-74
2022/10/12 02:57:52;;;;;;;22.13;13.93;;;;;;;11.51;100.00;98772.69;5100931;28;20261;-73
2022/10/12 03:00:19;;;;;;;21.70;15.03;;;;;;;11.53;100.00;98770.78;5103965;28;20272;-73
2022/10/12 03:02:45;;;;;;;21.40;14.73;;;;;;;11.53;100.00;98770.78;5102282;28;20261;-74
2022/10/12 03:05:12;;;;;;;21.87;14.23;;;;;;;11.54;100.00;98769.81;5102242;28;20258;-74
2022/10/12 03:07:40;;;;;;;21.63;14.90;;;;;;;11.50;100.00;98770.97;5103204;28;20290;-73
2022/10/12 03:10:07;;;;;;;17.33;13.60;;;;;;;11.49;100.00;98771.94;5104140;28;20268;-73
2022/10/12 03:12:34;;;;;;;24.07;15.17;;;;;;;11.48;100.00;98780.78;5102413;28;20283;-73
2022/10/12 03:15:00;;;;;;;19.57;13.97;;;;;;;11.47;100.00;98776.44;5102076;28;20657;-74
2022/10/12 03:17:27;;;;;;;20.47;14.07;;;;;;;11.50;100.00;98778.91;5102805;28;20261;-74
2022/10/12 03:19:53;;;;;;;18.57;13.13;;;;;;;11.51;100.00;98780.63;5104414;28;20268;-73
2022/10/12 03:22:20;;;;;;;18.57;13.90;;;;;;;11.51;100.00;98778.84;5101920;28;20657;-73
2022/10/12 03:24:48;;;;;;;20.97;13.60;;;;;;;11.52;100.00;98780.53;5100208;28;20273;-73
2022/10/12 03:27:14;;;;;;;17.60;13.57;;;;;;;11.50;100.00;98782.41;5101456;28;20281;-73
2022/10/12 03:29:41;;;;;;;19.00;13.50;;;;;;;11.53;100.00;98786.66;5104581;28;20610;-74
2022/10/12 03:32:08;;;;;;;17.63;13.13;;;;;;;11.53;100.00;98782.22;5101769;28;20271;-73
2022/10/12 03:34:34;;;;;;;16.27;12.23;;;;;;;11.53;100.00;98786.66;5101740;28;20265;-74
2022/10/12 03:37:01;;;;;;;17.33;11.60;;;;;;;11.57;100.00;98782.88;5102879;28;20264;-73
2022/10/12 03:39:28;;;;;;;14.57;12.03;;;;;;;11.58;100.00;98781.94;5104911;28;20284;-73
2022/10/12 03:41:56;;;;;;;18.13;12.80;;;;;;;11.58;100.00;98784.56;5101509;28;20234;-74
2022/10/12 03:44:22;;;;;;;19.83;13.37;;;;;;;11.57;100.00;98782.88;5101227;28;20272;-74
2022/10/12 03:46:49;;;;;;;19.53;11.93;;;;;;;11.54;100.00;98783.06;5101232;28;20276;-73
2022/10/12 03:49:15;;;;;;;14.47;11.50;;;;;;;11.49;100.00;98774.56;5103267;28;20601;-73
2022/10/12 03:51:42;;;;;;;15.87;11.40;;;;;;;11.43;100.00;98781.09;5101053;28;20233;-74
2022/10/12 03:54:09;;;;;;;15.07;11.13;;;;;;;11.38;100.00;98782.34;5101203;28;20288;-74
2022/10/12 03:56:36;;;;;;;15.17;11.80;;;;;;;11.32;100.00;98782.72;5098616;28;20257;-74
2022/10/12 03:59:04;;;;;;;15.97;12.37;;;;;;;11.30;100.00;98787.22;5104372;28;20627;-74
2022/10/12 04:01:30;;;;;;;16.50;10.90;;;;;;;11.22;100.00;98786.84;5101148;28;20286;-74
2022/10/12 04:03:57;;;;;;;18.67;11.70;;;;;;;11.17;100.00;98788.94;5101021;28;20254;-74
2022/10/12 04:06:24;;;;;;;17.73;12.57;;;;;;;11.14;100.00;98789.97;5101141;28;20227;-73
2022/10/12 04:08:50;;;;;;;19.13;12.17;;;;;;;11.12;100.00;98775.16;5103923;28;20291;-73
2022/10/12 04:11:19;;;;;;;16.17;12.37;;;;;;;11.10;100.00;98787.59;5101384;28;20261;-73
2022/10/12 04:13:45;;;;;;;17.27;13.07;;;;;;;11.09;100.00;98788.56;5101025;28;20230;-73
2022/10/12 04:16:13;;;;;;;18.27;12.40;;;;;;;11.09;100.00;98791.19;5099236;28;20268;-73
2022/10/12 04:18:40;;;;;;;19.67;13.13;;;;;;;11.06;100.00;98786.13;5103633;28;20221;-73
2022/10/12 04:21:10;;;;;;;18.67;13.30;;;;;;;10.98;100.00;98783.06;5101214;28;20260;-73
2022/10/12 04:23:37;;;;;;;18.37;12.20;;;;;;;10.93;100.00;98780.69;5097271;28;20241;-73
2022/10/12 04:26:04;;;;;;;17.37;13.50;;;;;;;10.93;100.00;98788.63;5100791;28;20523;-73
2022/10/12 04:28:30;;;;;;;21.03;13.70;;;;;;;11.01;100.00;98788.19;5103489;28;20288;-73
2022/10/12 04:30:57;;;;;;;16.93;13.80;;;;;;;11.10;100.00;98791.13;5101095;28;20265;-73
2022/10/12 04:33:25;;;;;;;18.93;14.37;;;;;;;11.17;100.00;98783.63;5100628;28;20671;-73
2022/10/12 04:35:51;;;;;;;19.43;14.03;;;;;;;11.24;100.00;98793.75;5100620;28;20258;-73
2022/10/12 04:38:18;;;;;;;19.73;13.40;;;;;;;11.34;100.00;98791.41;5103051;28;20285;-73
2022/10/12 04:40:46;;;;;;;20.37;13.90;;;;;;;11.41;100.00;98795.34;5101270;28;20304;-73
2022/10/12 04:43:13;;;;;;;20.33;14.40;;;;;;;11.50;100.00;98793.00;5098881;28;20222;-74
2022/10/12 04:45:40;;;;;;;18.30;14.37;;;;;;;11.58;100.00;98796.06;5100562;28;20261;-74
2022/10/12 04:48:06;;;;;;;17.30;13.83;;;;;;;11.61;100.00;98793.22;5102892;28;20665;-73
2022/10/12 04:50:35;;;;;;;16.47;12.50;;;;;;;11.66;100.00;98799.06;5101290;28;20269;-74
2022/10/12 04:53:01;;;;;;;17.77;13.40;;;;;;;11.73;100.00;98804.84;5107666;28;20257;-74
2022/10/12 04:55:28;;;;;;;18.73;13.13;;;;;;;11.77;100.00;98803.69;5108483;28;20351;-74
2022/10/12 04:57:55;;;;;;;17.57;13.23;;;;;;;11.80;100.00;98800.84;5102774;28;20308;-73
2022/10/12 05:00:22;;;;;;;18.90;14.17;;;;;;;11.86;100.00;98811.06;5101360;28;20658;-73
2022/10/12 05:02:48;;;;;;;19.93;13.37;;;;;;;11.87;100.00;98807.47;5100318;28;20223;-73
2022/10/12 05:05:15;;;;;;;20.47;13.20;;;;;;;11.88;100.00;98803.84;5100477;28;20264;-73
2022/10/12 05:07:43;;;;;;;17.53;12.97;;;;;;;11.86;100.00;98803.13;5100284;28;20286;-73
2022/10/12 05:10:10;;;;;;;19.33;13.13;;;;;;;11.78;100.00;98808.03;5101661;28;20274;-75
2022/10/12 05:12:36;;;;;;;17.30;12.67;;;;;;;11.74;100.00;98806.53;5100240;28;20261;-74
2022/10/12 05:15:03;;;;;;;17.83;12.37;;;;;;;11.74;100.00;98809.19;5100296;28;20271;-74
2022/10/12 05:17:30;;;;;;;18.10;12.33;;;;;;;11.76;100.00;98812.56;5101675;28;20536;-74
2022/10/12 05:19:56;;;;;;;15.50;11.57;;;;;;;11.79;100.00;98809.75;5101883;28;20257;-74
2022/10/12 05:22:23;;;;;;;14.77;11.07;;;;;;;11.82;100.00;98809.53;5100052;28;20594;-76
2022/10/12 05:24:51;;;;;;;15.33;12.23;;;;;;;11.86;100.00;98808.41;5100072;28;20272;-74
2022/10/12 05:27:18;;;;;;;14.13;11.07;;;;;;;11.89;100.00;98816.16;5101214;28;20281;-73
2022/10/12 05:29:44;;;;;;;14.70;11.17;;;;;;;11.92;100.00;98806.19;5102172;28;20271;-74
2022/10/12 05:32:11;;;;;;;11.80;10.40;;;;;;;11.95;100.00;98805.16;5100118;28;20607;-74
2022/10/12 05:34:37;;;;;;;15.03;11.30;;;;;;;12.00;100.00;98800.44;5098158;28;20265;-74
2022/10/12 05:37:04;;;;;;;15.27;11.47;;;;;;;11.99;100.00;98806.69;5100805;28;20270;-74
2022/10/12 05:39:31;;;;;;;14.57;11.30;;;;;;;11.97;100.00;98798.81;5102598;28;20643;-74
2022/10/12 05:41:59;;;;;;;14.20;11.13;;;;;;;12.00;100.00;98808.38;5100066;28;20262;-74
2022/10/12 05:44:25;;;;;;;15.00;11.53;;;;;;;12.04;100.00;98804.59;5100132;28;20269;-75
2022/10/12 05:46:52;;;;;;;15.83;12.07;;;;;;;12.07;100.00;98809.66;5100253;28;20260;-74
2022/10/12 05:49:18;;;;;;;18.23;13.03;;;;;;;12.02;100.00;98815.28;5102959;28;20565;-73
2022/10/12 05:51:45;;;;;;;17.93;12.63;;;;;;;11.98;100.00;98815.56;5102263;28;20264;-74
2022/10/12 05:54:12;;;;;;;15.53;11.70;;;;;;;11.98;100.00;98820.88;5103848;28;20268;-74
2022/10/12 05:56:38;;;;;;;16.67;11.90;;;;;;;11.96;100.00;98825.41;5101378;28;20617;-74
2022/10/12 05:59:06;;;;;;;15.67;11.83;;;;;;;11.98;100.00;98821.72;5113179;28;20258;-73
2022/10/12 06:01:33;;;;;;;16.07;11.87;;;;;;;12.03;100.00;98821.41;5115711;28;20296;-73
2022/10/12 06:04:00;;;;;;;18.33;13.20;;;;;;;12.07;100.00;98828.22;5116880;28;20260;-75
2022/10/12 06:06:26;;;;;;;16.73;11.50;;;;;;;12.07;100.00;98822.91;5116810;28;20260;-75
2022/10/12 06:08:53;;;;;;;18.97;12.20;;;;;;;12.08;100.00;98829.91;5114020;28;20289;-73
2022/10/12 06:11:20;;;;;;;22.00;13.37;;;;;;;12.09;100.00;98835.13;5116721;28;20228;-73
2022/10/12 06:13:47;;;;;;;32.83;14.97;;;;;;;12.09;100.00;98831.63;5116830;28;20224;-73
2022/10/12 06:16:14;;;;;;;27.03;14.77;;;;;;;12.02;100.00;98825.00;5116670;28;20257;-73
2022/10/12 06:18:41;;;;;;;22.47;14.67;;;;;;;12.00;100.00;98826.91;5113277;28;20230;-73
2022/10/12 06:21:08;;;;;;;22.67;14.83;;;;;;;11.97;100.00;98825.31;5101160;28;20256;-74
2022/10/12 06:23:35;;;;;;;19.83;13.13;;;;;;;12.00;100.00;98829.56;5101656;28;20704;-74
2022/10/12 06:26:01;;;;;;;23.33;14.77;;;;;;;12.10;100.00;98820.09;5099924;28;20649;-73
2022/10/12 06:28:28;;;;;;;28.30;15.37;;;;;;;12.19;100.00;98827.44;5104349;28;20279;-73
2022/10/12 06:30:56;;;;;;;23.20;14.77;;;;;;;12.24;100.00;98828.81;5102059;28;20268;-73
2022/10/12 06:33:25;;;;;;;21.10;14.07;;;;;;;12.32;100.00;98830.97;5101607;28;20579;-73
2022/10/12 06:35:53;;;;;;;21.47;14.63;;;;;;;12.39;100.00;98833.16;5101509;28;20228;-73
2022/10/12 06:38:19;;;;;;;21.30;14.47;;;;;;;12.45;100.00;98826.56;5104440;28;20249;-73
2022/10/12 06:40:46;;;;;;;21.93;13.43;;;;;;;12.54;100.00;98831.28;5101533;28;20261;-73
2022/10/12 06:43:12;;;;;;;18.23;13.97;;;;;;;12.60;100.00;98826.41;5101332;28;20279;-73
2022/10/12 06:45:39;;;;;;;20.57;13.53;;;;;;;12.65;100.00;98834.09;5101431;28;20261;-74
2022/10/12 06:48:07;;;;;;;16.53;12.17;;;;;;;12.72;100.00;98830.06;5103832;28;20246;-73
2022/10/12 06:50:35;;;;;;;20.60;14.37;;;;;;;12.77;100.00;98834.09;5101575;28;20226;-74
2022/10/12 06:53:02;;;;;;;17.03;12.87;;;;;;;12.83;100.00;98832.88;5099323;28;20258;-73
2022/10/12 06:55:29;;;;;;;16.00;11.97;;;;;;;12.87;100.00;98834.34;5106223;28;20256;-74
2022/10/12 06:57:55;;;;;;;18.03;13.83;;;;;;;12.91;100.00;98833.19;5101359;28;20221;-74
2022/10/12 07:00:22;;;;;;;19.27;13.87;;;;;;;12.98;100.00;98832.72;5101765;28;20268;-74
2022/10/12 07:02:50;;;;;;;20.37;14.30;;;;;;;13.06;100.00;98834.81;5099794;28;20269;-75
2022/10/12 07:05:17;;;;;;;16.57;13.63;;;;;;;13.13;100.00;98841.41;5100969;28;20316;-73
2022/10/12 07:07:45;;;;;;;18.50;13.87;;;;;;;13.19;100.00;98846.28;5103204;28;20286;-73
2022/10/12 07:10:12;;;;;;;17.00;13.70;;;;;;;13.23;100.00;98837.19;5101463;28;20226;-74
2022/10/12 07:12:39;;;;;;;15.30;12.67;;;;;;;13.26;100.00;98832.50;5100826;28;20228;-73
2022/10/12 07:15:07;;;;;;;16.23;12.60;;;;;;;13.29;100.00;98832.31;5100677;28;20226;-74
2022/10/12 07:17:34;;;;;;;16.57;11.83;;;;;;;13.37;100.00;98839.72;5102878;28;20319;-75
2022/10/12 07:20:00;;;;;;;17.27;12.90;;;;;;;13.46;100.00;98844.41;5098528;28;20811;-76
2022/10/12 07:22:27;;;;;;;16.57;12.50;;;;;;;13.58;100.00;98844.38;5103428;28;20298;-73
2022/10/12 07:24:55;;;;;;;14.60;11.93;;;;;;;13.67;100.00;98840.25;5105298;28;20690;-77
2022/10/12 07:27:22;;;;;;;17.53;12.43;;;;;;;13.77;100.00;98843.97;5102550;28;20573;-74
2022/10/12 07:29:48;;;;;;;16.47;12.47;;;;;;;13.85;100.00;98846.91;5101677;28;20277;-74
2022/10/12 07:32:15;;;;;;;16.17;12.57;;;;;;;13.89;100.00;98835.13;5100462;28;20285;-73
2022/10/12 07:34:43;;;;;;;14.93;12.20;;;;;;;13.87;100.00;98842.34;5100391;28;20586;-73
2022/10/12 07:37:11;;;;;;;17.07;12.77;;;;;;;13.85;100.00;98841.59;5102075;28;20318;-73
2022/10/12 07:39:40;;;;;;;15.13;12.10;;;;;;;13.85;100.00;98841.59;5101582;28;20541;-74
2022/10/12 07:42:08;;;;;;;17.50;12.77;;;;;;;13.85;100.00;98841.59;5100406;28;20240;-75
2022/10/12 07:44:34;;;;;;;15.63;12.47;;;;;;;13.86;100.00;98835.31;5098967;28;20256;-75
2022/10/12 07:47:01;;;;;;;15.10;12.20;;;;;;;13.96;100.00;98839.03;5102030;28;20228;-76
2022/10/12 07:49:28;;;;;;;15.17;12.27;;;;;;;14.10;100.00;98836.22;5101599;28;20273;-77
2022/10/12 07:51:54;;;;;;;15.27;11.90;;;;;;;14.23;100.00;98837.09;5100351;28;20226;-75
2022/10/12 07:54:21;;;;;;;16.63;12.17;;;;;;;14.35;100.00;98830.88;5100545;28;20262;-76
2022/10/12 07:56:48;;;;;;;15.73;12.00;;;;;;;14.49;100.00;98830.69;5100379;28;20312;-77
2022/10/12 07:59:16;;;;;;;16.70;12.37;;;;;;;14.64;100.00;98837.53;5101820;28;20302;-76
2022/10/12 08:01:43;;;;;;;17.30;12.37;;;;;;;14.77;100.00;98839.19;5100279;28;20261;-76
2022/10/12 08:04:10;;;;;;;20.13;12.30;;;;;;;14.89;100.00;98842.72;5100081;28;20433;-76
2022/10/12 08:06:37;;;;;;;14.33;11.50;;;;;;;14.97;100.00;98841.19;5101136;28;20289;-76
2022/10/12 08:09:04;;;;;;;14.20;11.53;;;;;;;15.05;100.00;98835.28;5101951;28;20286;-76
2022/10/12 08:11:31;;;;;;;15.33;11.47;;;;;;;15.11;100.00;98842.81;5098151;28;20571;-76
2022/10/12 08:13:57;;;;;;;15.27;11.23;;;;;;;15.15;100.00;98838.94;5099754;28;20228;-75
2022/10/12 08:16:25;;;;;;;14.07;11.27;;;;;;;15.22;100.00;98841.00;5100926;28;20473;-76
2022/10/12 08:18:52;;;;;;;16.93;12.93;;;;;;;15.28;100.00;98839.69;5108424;28;20227;-76
2022/10/12 08:21:19;;;;;;;15.30;11.33;;;;;;;15.33;100.00;98843.72;5099714;28;20228;-76
2022/10/12 08:23:46;;;;;;;15.10;11.80;;;;;;;15.41;100.00;98851.13;5099499;28;20259;-76
2022/10/12 08:26:14;;;;;;;14.60;12.73;;;;;;;15.51;100.00;98852.13;5100052;28;20263;-76
2022/10/12 08:28:41;;;;;;;14.13;12.20;;;;;;;15.57;100.00;98851.66;5101522;28;20240;-77
2022/10/12 08:31:09;;;;;;;15.77;12.17;;;;;;;15.57;100.00;98851.66;5099413;28;20636;-78
2022/10/12 08:33:39;;;;;;;15.57;12.70;;;;;;;15.64;100.00;98842.22;5099461;28;20270;-77
2022/10/12 08:36:07;;;;;;;14.10;12.00;;;;;;;15.73;100.00;98847.66;5100413;28;20230;-77
2022/10/12 08:38:34;;;;;;;15.70;13.00;;;;;;;15.86;100.00;98851.06;5109546;28;20259;-75
2022/10/12 08:41:09;;;;;;;15.70;12.73;;;;;;;15.98;100.00;98850.91;5099278;28;20620;-76
2022/10/12 08:43:46;;;;;;;16.20;12.77;;;;;;;16.11;100.00;98850.78;5099163;28;20260;-76
2022/10/12 08:46:13;;;;;;;16.73;12.70;;;;;;;16.23;100.00;98853.34;5102761;28;20581;-76
2022/10/12 08:48:49;;;;;;;17.43;11.43;;;;;;;16.35;100.00;98844.31;5098939;28;20288;-76
2022/10/12 08:51:20;;;;;;;16.40;12.27;;;;;;;16.52;100.00;98841.16;5099169;28;20270;-76
2022/10/12 08:53:53;;;;;;;16.23;13.10;;;;;;;16.69;100.00;98839.75;5100339;28;20226;-75
2022/10/12 08:56:20;;;;;;;18.17;14.03;;;;;;;16.80;100.00;98835.25;5103099;28;20256;-76
2022/10/12 08:58:49;;;;;;;19.17;14.40;;;;;;;16.92;100.00;98836.91;5099144;28;20261;-76
2022/10/12 09:01:24;;;;;;;16.10;13.67;;;;;;;16.98;100.00;98825.69;5099115;28;20264;-76
2022/10/12 09:04:08;;;;;;;17.10;13.93;;;;;;;16.85;100.00;98830.38;5101642;28;20237;-76
2022/10/12 09:06:40;;;;;;;17.03;13.90;;;;;;;16.80;100.00;98829.91;5106358;28;20264;-77
2022/10/12 09:09:22;;;;;;;19.20;14.17;;;;;;;16.82;100.00;98829.78;5098859;28;20277;-76
2022/10/12 09:12:01;;;;;;;18.60;14.37;;;;;;;16.84;100.00;98823.34;5098892;28;20264;-75
2022/10/12 09:14:32;;;;;;;17.20;13.63;;;;;;;16.88;100.00;98824.75;5098875;28;20591;-76
2022/10/12 09:17:01;;;;;;;15.80;13.00;;;;;;;17.03;100.00;98823.50;5098819;28;20258;-76
2022/10/12 09:19:35;;;;;;;16.17;13.07;;;;;;;17.16;100.00;98828.63;5100759;28;20229;-76
2022/10/12 09:22:03;;;;;;;19.40;13.67;;;;;;;17.16;100.00;98824.16;5098997;28;20268;-75
2022/10/12 09:24:35;;;;;;;17.37;13.67;;;;;;;17.23;100.00;98828.00;5098814;28;20272;-76
2022/10/12 09:27:13;;;;;;;20.70;14.43;;;;;;;17.32;100.00;98832.53;5101624;28;20261;-75
2022/10/12 09:29:40;;;;;;;16.63;13.60;;;;;;;17.44;100.00;98828.84;5113763;28;20251;-76
2022/10/12 09:32:35;;;;;;;17.73;13.40;;;;;;;17.61;98.96;98825.56;5113664;28;20263;-76
2022/10/12 09:35:06;;;;;;;18.10;14.43;;;;;;;17.75;97.30;98819.84;5083858;28;20282;-75
2022/10/12 09:37:35;;;;;;;18.07;14.17;;;;;;;17.84;96.37;98827.09;5113310;28;20305;-76
2022/10/12 09:40:02;;;;;;;17.33;13.47;;;;;;;17.98;95.13;98833.91;5115258;28;20249;-76
2022/10/12 09:42:29;;;;;;;19.37;14.13;;;;;;;18.01;93.86;98834.50;5115307;28;20225;-76
2022/10/12 09:45:02;;;;;;;19.70;14.07;;;;;;;18.02;93.34;98829.97;5113913;28;20308;-76
2022/10/12 09:47:30;;;;;;;17.27;13.57;;;;;;;18.02;93.30;98824.63;5114567;28;20301;-76
2022/10/12 09:49:58;;;;;;;17.63;13.40;;;;;;;18.05;93.06;98835.91;5115709;28;20234;-76
2022/10/12 09:52:29;;;;;;;18.00;13.00;;;;;;;18.02;92.95;98836.19;5115653;28;20271;-76
2022/10/12 09:54:59;;;;;;;15.07;12.17;;;;;;;17.96;92.94;98836.72;5105543;28;20258;-76
2022/10/12 09:57:28;;;;;;;16.70;12.50;;;;;;;17.90;93.07;98837.25;5100535;28;20291;-74
2022/10/12 09:59:55;;;;;;;14.50;11.83;;;;;;;17.78;93.14;98827.63;5102204;28;20253;-76
2022/10/12 10:02:23;;;;;;;14.00;11.60;;;;;;;17.73;94.02;98826.34;5102203;28;20222;-75
2022/10/12 10:04:51;;;;;;;14.20;11.47;;;;;;;17.69;94.36;98830.25;5105503;28;20253;-75
2022/10/12 10:07:27;;;;;;;17.03;13.27;;;;;;;17.67;93.76;98830.38;5101927;28;20281;-76
2022/10/12 10:10:14;;;;;;;17.00;12.80;;;;;;;17.65;93.54;98823.47;5102112;28;20667;-76
2022/10/12 10:12:48;;;;;;;15.30;12.33;;;;;;;17.60;93.50;98823.88;5104929;28;20230;-75
2022/10/12 10:15:21;;;;;;;19.13;14.30;;;;;;;17.46;92.26;98829.59;5101891;28;20305;-76
2022/10/12 10:17:52;;;;;;;18.73;13.13;;;;;;;17.44;93.01;98839.53;5101829;28;20229;-76
2022/10/12 10:20:27;;;;;;;18.27;12.87;;;;;;;17.40;93.71;98838.13;5102929;28;20253;-76
2022/10/12 10:22:55;;;;;;;18.07;12.97;;;;;;;17.37;94.10;98834.84;5102787;28;20225;-76
2022/10/12 10:25:23;;;;;;;16.87;12.63;;;;;;;17.35;94.41;98837.63;5100297;28;20254;-73
2022/10/12 10:28:09;;;;;;;15.10;11.20;;;;;;;17.35;94.64;98829.63;5101810;28;20548;-75
2022/10/12 10:30:36;;;;;;;16.67;12.17;;;;;;;17.38;94.31;98828.53;5112360;28;20649;-74
2022/10/12 10:33:15;;;;;;;16.73;11.40;;;;;;;17.40;94.14;98827.44;5114985;28;20253;-74
2022/10/12 10:35:55;;;;;;;12.43;10.23;;;;;;;17.45;93.68;98835.91;5115068;28;20222;-74
2022/10/12 10:38:23;;;;;;;14.20;10.27;;;;;;;17.48;92.84;98830.28;5111108;28;20262;-74
2022/10/12 10:40:55;;;;;;;14.10;9.77;;;;;;;17.52;91.96;98828.19;5114754;28;20268;-74
2022/10/12 10:43:27;;;;;;;12.73;9.20;;;;;;;17.59;91.48;98821.34;5114774;28;20229;-75
2022/10/12 10:45:56;;;;;;;14.10;9.63;;;;;;;17.69;91.04;98819.56;5113770;28;20513;-75
2022/10/12 10:48:27;;;;;;;12.37;9.70;;;;;;;17.77;90.71;98825.09;5112719;28;20258;-74
2022/10/12 10:50:59;;;;;;;11.33;9.07;;;;;;;17.90;89.87;98825.69;5112891;28;20664;-74
2022/10/12 10:53:30;;;;;;;12.17;9.60;;;;;;;17.96;87.37;98823.34;5114551;28;20623;-74
2022/10/12 10:56:04;;;;;;;12.27;8.87;;;;;;;18.06;87.66;98818.88;5108546;28;20275;-74
2022/10/12 10:58:36;;;;;;;11.47;8.63;;;;;;;18.19;87.65;98814.13;5101039;28;20227;-75
2022/10/12 11:01:13;;;;;;;11.30;8.03;;;;;;;18.24;84.62;98803.84;5100949;28;20258;-75
2022/10/12 11:03:49;;;;;;;10.50;8.53;;;;;;;18.35;84.25;98794.91;5102629;28;20222;-74
2022/10/12 11:06:25;;;;;;;10.53;8.40;;;;;;;18.46;84.72;98803.66;5101095;28;20271;-75
2022/10/12 11:09:00;;;;;;;10.03;8.07;;;;;;;18.55;84.55;98797.47;5108676;28;20281;-75
2022/10/12 11:11:31;;;;;;;9.67;7.83;;;;;;;18.61;82.82;98796.91;5102046;28;20254;-74
2022/10/12 11:14:03;;;;;;;10.43;7.80;;;;;;;18.66;82.79;98794.63;5102225;28;20687;-74
2022/10/12 11:16:34;;;;;;;12.77;8.60;;;;;;;18.70;82.53;98796.06;5098825;28;20269;-75
2022/10/12 11:19:11;;;;;;;13.03;8.27;;;;;;;18.72;81.44;98788.72;5098710;28;20272;-79
2022/10/12 11:21:45;;;;;;;12.23;8.00;;;;;;;18.83;81.57;98790.44;5107803;28;20238;-74